Time;durP1;ratioP1;P1;durP2;ratioP2;P2;SDS_P1;SDS_P2;PMS_P1;PMS_P2;Temp;Humidity;BMP_temperature;BMP_pressure;BME280_temperature;BME280_humidity;BME280_pressure;Samples;Min_cycle;Max_cycle;Signal;HPM_P1;HPM_P2
2022/01/30 00:00:33;;;;;;;16.23;3.90;;;6.90;99.90;;;;;;5068778;28;20551;-80
2022/01/30 00:03:02;;;;;;;17.97;3.60;;;6.90;99.90;;;;;;5066639;28;20451;-78
2022/01/30 00:05:30;;;;;;;12.50;3.00;;;6.80;99.90;;;;;;5079230;28;20455;-80
2022/01/30 00:07:57;;;;;;;15.70;3.60;;;6.90;99.90;;;;;;5076004;28;20569;-80
2022/01/30 00:10:24;;;;;;;13.27;3.70;;;6.90;99.90;;;;;;5078794;28;20561;-81
2022/01/30 00:12:55;;;;;;;9.00;3.10;;;7.00;99.90;;;;;;5064011;28;20447;-79
2022/01/30 00:15:34;;;;;;;13.10;3.93;;;7.10;99.90;;;;;;5081170;28;20450;-79
2022/01/30 00:18:12;;;;;;;15.07;3.10;;;7.10;99.90;;;;;;5077760;28;20450;-79
2022/01/30 00:20:41;;;;;;;14.47;4.03;;;7.00;99.90;;;;;;5068199;28;20490;-80
2022/01/30 00:23:12;;;;;;;13.57;5.13;;;6.90;99.90;;;;;;5071369;28;20465;-80
2022/01/30 00:25:47;;;;;;;16.67;3.93;;;6.90;99.90;;;;;;5079979;28;20482;-81
2022/01/30 00:28:15;;;;;;;12.27;5.37;;;7.00;99.90;;;;;;5077084;28;20495;-78
2022/01/30 00:30:42;;;;;;;19.87;3.67;;;6.90;99.90;;;;;;5067702;28;20478;-78
2022/01/30 00:33:10;;;;;;;13.27;4.47;;;6.90;99.90;;;;;;5059948;28;20534;-80
2022/01/30 00:35:37;;;;;;;12.07;3.97;;;6.80;99.90;;;;;;5060148;28;20448;-81
2022/01/30 00:38:05;;;;;;;12.33;3.40;;;6.80;99.90;;;;;;5059070;28;20449;-81
2022/01/30 00:40:32;;;;;;;21.23;4.07;;;6.70;99.90;;;;;;5065395;28;20494;-81
2022/01/30 00:42:59;;;;;;;11.40;3.87;;;6.70;99.90;;;;;;5077752;28;20472;-79
2022/01/30 00:45:26;;;;;;;16.73;4.57;;;6.60;99.90;;;;;;5076070;28;20777;-81
2022/01/30 00:47:53;;;;;;;16.63;3.97;;;6.50;99.90;;;;;;5061592;28;20499;-79
2022/01/30 00:50:21;;;;;;;21.63;4.53;;;6.50;99.90;;;;;;5074497;28;21027;-81
2022/01/30 00:52:50;;;;;;;15.63;3.87;;;6.50;99.90;;;;;;5059435;28;20459;-79
2022/01/30 00:55:17;;;;;;;11.80;3.50;;;6.50;99.90;;;;;;5062145;28;20455;-80
2022/01/30 00:57:43;;;;;;;18.17;3.90;;;6.40;99.90;;;;;;5068362;28;20474;-80
2022/01/30 01:00:11;;;;;;;16.27;4.40;;;6.40;99.90;;;;;;5067598;28;20476;-81
2022/01/30 01:02:39;;;;;;;20.27;4.20;;;6.30;99.90;;;;;;5071821;28;20465;-82
2022/01/30 01:05:06;;;;;;;14.10;3.97;;;6.30;99.90;;;;;;5076141;28;20489;-79
2022/01/30 01:07:37;;;;;;;18.73;4.40;;;6.30;99.90;;;;;;5072778;28;20523;-80
2022/01/30 01:10:09;;;;;;;26.00;4.47;;;6.30;99.90;;;;;;5078820;28;20467;-80
2022/01/30 01:23:53;;;;;;;14.50;3.07;;;6.50;99.90;;;;;;4995048;28;20456;-80
2022/01/30 01:26:21;;;;;;;23.43;4.23;;;6.70;99.90;;;;;;5062091;28;20445;-79
2022/01/30 01:28:49;;;;;;;15.53;3.63;;;6.80;99.90;;;;;;5066791;28;20511;-78
2022/01/30 01:31:16;;;;;;;11.70;3.13;;;6.90;99.90;;;;;;5057401;28;20499;-80
2022/01/30 01:33:58;;;;;;;14.50;3.57;;;6.90;99.90;;;;;;5056620;28;20523;-79
2022/01/30 01:36:25;;;;;;;19.53;4.20;;;6.80;99.90;;;;;;5056632;28;20545;-80
2022/01/30 01:38:54;;;;;;;20.03;4.03;;;6.80;99.90;;;;;;5056567;28;20451;-79
2022/01/30 01:41:22;;;;;;;24.77;3.97;;;6.80;99.90;;;;;;5085209;28;20575;-80
2022/01/30 01:43:50;;;;;;;31.07;6.03;;;6.80;99.90;;;;;;5082750;28;20455;-78
2022/01/30 01:46:21;;;;;;;13.93;5.00;;;6.80;99.90;;;;;;5062492;28;20489;-78
2022/01/30 01:48:50;;;;;;;16.10;5.80;;;6.80;99.90;;;;;;5055592;28;20479;-78
2022/01/30 01:51:19;;;;;;;15.80;4.20;;;6.70;99.90;;;;;;5056042;28;20493;-79
2022/01/30 01:53:48;;;;;;;24.47;5.37;;;6.60;99.90;;;;;;5061250;28;20449;-82
2022/01/30 01:56:16;;;;;;;24.73;6.73;;;6.50;99.90;;;;;;5066712;28;20457;-80
2022/01/30 01:58:43;;;;;;;18.40;4.47;;;6.40;99.90;;;;;;5072831;28;20446;-79
2022/01/30 02:01:10;;;;;;;17.90;5.03;;;6.40;99.90;;;;;;5068721;28;20473;-80
2022/01/30 02:03:38;;;;;;;19.87;4.50;;;6.40;99.90;;;;;;5060629;28;20447;-80
2022/01/30 02:06:06;;;;;;;15.07;3.47;;;6.40;99.90;;;;;;5066196;28;20477;-80
2022/01/30 02:08:36;;;;;;;17.27;4.23;;;6.30;99.90;;;;;;5093010;28;20494;-81
2022/01/30 02:11:06;;;;;;;28.57;5.37;;;6.20;99.90;;;;;;5099193;28;20848;-80
2022/01/30 02:24:48;;;;;;;24.93;5.43;;;6.40;99.90;;;;;;5063405;28;20454;-79
2022/01/30 02:27:17;;;;;;;30.27;5.70;;;6.30;99.90;;;;;;5063018;28;20446;-79
2022/01/30 02:29:44;;;;;;;15.57;4.63;;;6.30;99.90;;;;;;5078444;28;20459;-79
2022/01/30 02:32:11;;;;;;;18.87;4.93;;;6.20;99.90;;;;;;5083088;28;21039;-78
2022/01/30 02:34:38;;;;;;;23.37;5.50;;;6.20;99.90;;;;;;5082588;28;20476;-80
2022/01/30 02:37:05;;;;;;;21.80;4.90;;;6.20;99.90;;;;;;5067143;28;20541;-80
2022/01/30 02:39:32;;;;;;;21.43;4.40;;;6.10;99.90;;;;;;5082928;28;20457;-81
2022/01/30 02:42:01;;;;;;;15.57;4.40;;;6.10;99.90;;;;;;5073426;28;20458;-79
2022/01/30 02:44:33;;;;;;;23.80;4.77;;;6.00;99.90;;;;;;5060588;28;20462;-81
2022/01/30 02:47:07;;;;;;;15.30;4.10;;;5.90;99.90;;;;;;5059622;28;20474;-79
2022/01/30 02:49:56;;;;;;;17.10;4.80;;;5.80;99.90;;;;;;5059142;28;20430;-78
2022/01/30 02:52:23;;;;;;;17.40;4.60;;;5.80;99.90;;;;;;5091092;28;20486;-81
2022/01/30 02:54:52;;;;;;;15.60;3.83;;;5.70;99.90;;;;;;5100878;28;20979;-82
2022/01/30 02:57:20;;;;;;;26.10;4.73;;;5.70;99.90;;;;;;5063682;28;20470;-79
2022/01/30 02:59:47;;;;;;;20.40;4.30;;;5.80;99.90;;;;;;5061983;28;20464;-80
2022/01/30 03:02:13;;;;;;;17.73;5.00;;;5.70;99.90;;;;;;5066769;28;20454;-80
2022/01/30 03:04:41;;;;;;;21.80;5.10;;;5.70;99.90;;;;;;5082237;28;20452;-80
2022/01/30 03:07:08;;;;;;;23.33;6.03;;;5.70;99.90;;;;;;5080765;28;20511;-80
2022/01/30 03:09:35;;;;;;;21.17;5.10;;;5.70;99.90;;;;;;5074020;28;20497;-81
2022/01/30 03:12:02;;;;;;;28.63;5.53;;;5.80;99.90;;;;;;5062131;28;20445;-80
2022/01/30 03:14:30;;;;;;;17.67;4.03;;;5.90;99.90;;;;;;5060570;28;20955;-81
2022/01/30 03:16:57;;;;;;;24.47;5.70;;;5.90;99.90;;;;;;5088556;28;20459;-79
2022/01/30 03:19:23;;;;;;;21.20;5.13;;;5.80;99.90;;;;;;5065785;28;20446;-79
2022/01/30 03:21:50;;;;;;;18.10;4.30;;;5.80;99.90;;;;;;5061804;28;20542;-79
2022/01/30 03:24:17;;;;;;;22.30;4.43;;;5.70;99.90;;;;;;5059909;28;20454;-79
2022/01/30 03:26:44;;;;;;;21.90;5.23;;;5.70;99.90;;;;;;5061282;28;20556;-80
2022/01/30 03:29:11;;;;;;;17.60;4.53;;;5.70;99.90;;;;;;5063372;28;20497;-80
2022/01/30 03:31:42;;;;;;;17.67;4.80;;;5.70;99.90;;;;;;5081242;28;20473;-80
2022/01/30 03:34:11;;;;;;;28.00;5.30;;;5.80;99.90;;;;;;5065300;28;20545;-79
2022/01/30 03:36:38;;;;;;;18.70;4.10;;;5.90;99.90;;;;;;5082111;28;20455;-81
2022/01/30 03:39:06;;;;;;;18.47;4.77;;;6.00;99.90;;;;;;5081832;28;20836;-79
2022/01/30 03:41:33;;;;;;;20.37;4.27;;;6.10;99.90;;;;;;5079219;28;20565;-80
2022/01/30 03:44:00;;;;;;;17.30;4.67;;;6.20;99.90;;;;;;5060852;28;20972;-80
2022/01/30 03:46:27;;;;;;;15.23;4.10;;;6.20;99.90;;;;;;5060851;28;20486;-81
2022/01/30 03:48:56;;;;;;;21.27;4.97;;;6.30;99.90;;;;;;5059771;28;20582;-79
2022/01/30 03:51:22;;;;;;;11.33;4.03;;;6.30;99.90;;;;;;5061802;28;20565;-80
2022/01/30 03:53:49;;;;;;;26.77;4.97;;;6.40;99.90;;;;;;5060462;28;20489;-79
2022/01/30 03:56:16;;;;;;;22.97;5.17;;;6.40;99.90;;;;;;5061356;28;20447;-83
2022/01/30 03:58:43;;;;;;;21.50;4.40;;;6.40;99.90;;;;;;5101236;28;20526;-79
2022/01/30 04:01:09;;;;;;;21.47;4.30;;;6.40;99.90;;;;;;5098786;28;20472;-80
2022/01/30 04:03:36;;;;;;;21.60;4.30;;;6.30;99.90;;;;;;5079713;28;20454;-80
2022/01/30 04:06:06;;;;;;;22.20;4.67;;;6.20;99.90;;;;;;5080155;28;20534;-80
2022/01/30 04:08:33;;;;;;;22.73;4.33;;;6.00;99.90;;;;;;5079892;28;20490;-78
2022/01/30 04:11:00;;;;;;;21.97;4.70;;;5.90;99.90;;;;;;5072615;28;20477;-80
2022/01/30 04:13:27;;;;;;;19.07;3.97;;;5.80;99.90;;;;;;5073412;28;20832;-80
2022/01/30 04:15:55;;;;;;;15.50;4.07;;;5.70;99.90;;;;;;5079171;28;20443;-81
2022/01/30 04:18:22;;;;;;;19.07;4.90;;;5.60;99.90;;;;;;5079419;28;20529;-82
2022/01/30 04:20:51;;;;;;;15.00;3.60;;;5.60;99.90;;;;;;5079081;28;20472;-79
2022/01/30 04:23:19;;;;;;;18.47;4.20;;;5.40;99.90;;;;;;5080868;28;20448;-80
2022/01/30 04:25:46;;;;;;;16.57;4.47;;;5.50;99.90;;;;;;5080394;28;20520;-81
2022/01/30 04:28:13;;;;;;;18.87;3.80;;;5.50;99.90;;;;;;5080438;28;20490;-81
2022/01/30 04:30:41;;;;;;;21.63;4.17;;;5.70;99.90;;;;;;5072939;28;20477;-81
2022/01/30 04:33:08;;;;;;;15.50;4.10;;;5.80;99.90;;;;;;5076840;28;20458;-79
2022/01/30 04:35:36;;;;;;;17.37;3.70;;;5.90;99.90;;;;;;5071957;28;20463;-80
2022/01/30 04:38:14;;;;;;;18.40;4.73;;;6.00;99.90;;;;;;5078883;28;20789;-81
2022/01/30 04:52:21;;;;;;;19.43;4.47;;;6.10;99.90;;;;;;5071984;22;20494;-82
2022/01/30 04:57:51;;;;;;;17.83;3.87;;;6.10;99.90;;;;;;5024326;28;20864;-83
2022/01/30 05:00:30;;;;;;;15.00;3.90;;;6.10;99.90;;;;;;5018319;28;20452;-81
2022/01/30 05:03:08;;;;;;;18.67;4.00;;;6.10;99.90;;;;;;5017910;28;20480;-80
2022/01/30 05:05:46;;;;;;;18.57;3.77;;;6.20;99.90;;;;;;5019306;28;20452;-84
2022/01/30 05:08:14;;;;;;;22.60;3.40;;;6.20;99.90;;;;;;5027659;28;20492;-84
2022/01/30 05:10:41;;;;;;;13.57;3.90;;;6.20;99.90;;;;;;5027327;28;20528;-82
2022/01/30 05:13:14;;;;;;;13.63;3.13;;;6.20;99.90;;;;;;5022309;28;20488;-82
2022/01/30 05:15:43;;;;;;;10.60;3.23;;;6.20;99.90;;;;;;5023175;28;20517;-80
2022/01/30 05:18:11;;;;;;;16.80;3.30;;;6.30;99.90;;;;;;5020079;28;21087;-83
2022/01/30 05:20:38;;;;;;;11.80;3.53;;;6.20;99.90;;;;;;5028447;28;20449;-83
2022/01/30 05:23:05;;;;;;;15.67;4.20;;;6.20;99.90;;;;;;5025372;28;20485;-83
2022/01/30 05:25:33;;;;;;;14.33;2.87;;;6.20;99.90;;;;;;5032484;28;20458;-84
2022/01/30 05:28:00;;;;;;;17.70;3.70;;;6.20;99.90;;;;;;5024655;28;20525;-83
2022/01/30 05:30:29;;;;;;;14.73;2.80;;;6.30;99.90;;;;;;5021540;28;20499;-83
2022/01/30 05:32:56;;;;;;;15.37;3.40;;;6.20;99.90;;;;;;5015229;28;20475;-83
2022/01/30 05:35:24;;;;;;;21.83;4.83;;;6.10;99.90;;;;;;5025866;28;20524;-82
2022/01/30 05:37:51;;;;;;;17.47;4.37;;;6.20;99.90;;;;;;5019989;28;20465;-83
2022/01/30 05:40:18;;;;;;;11.77;3.27;;;6.10;99.90;;;;;;5023045;28;20469;-84
2022/01/30 05:42:46;;;;;;;17.30;3.50;;;6.10;99.90;;;;;;5023989;28;20512;-82
2022/01/30 05:45:19;;;;;;;19.20;3.80;;;6.20;99.90;;;;;;5022213;28;20495;-83
2022/01/30 05:47:53;;;;;;;14.00;3.10;;;6.20;99.90;;;;;;5022154;28;20462;-84
2022/01/30 05:50:21;;;;;;;16.70;2.97;;;6.20;99.90;;;;;;5025921;28;20554;-83
2022/01/30 05:52:48;;;;;;;16.73;3.80;;;6.20;99.90;;;;;;5027652;28;20512;-83
2022/01/30 05:55:14;;;;;;;16.47;4.23;;;6.20;99.90;;;;;;5026041;28;20464;-83
2022/01/30 05:57:41;;;;;;;12.57;3.00;;;6.20;99.90;;;;;;5027570;28;20452;-84
2022/01/30 06:00:13;;;;;;;13.57;3.93;;;6.30;99.90;;;;;;5027137;28;20540;-84
2022/01/30 06:02:41;;;;;;;13.60;2.83;;;6.30;99.90;;;;;;5027288;28;20487;-84
2022/01/30 06:05:10;;;;;;;13.77;5.23;;;6.30;99.90;;;;;;5027032;28;20462;-83
2022/01/30 06:07:46;;;;;;;15.07;4.50;;;6.30;99.90;;;;;;5028779;28;20451;-84
2022/01/30 06:10:13;;;;;;;22.00;4.07;;;6.30;99.90;;;;;;5023535;28;20574;-83
2022/01/30 06:12:39;;;;;;;14.97;3.33;;;6.30;99.90;;;;;;5010426;28;20477;-84
2022/01/30 06:15:07;;;;;;;17.50;6.40;;;6.30;99.90;;;;;;5046726;28;20451;-83
2022/01/30 06:17:34;;;;;;;18.57;4.60;;;6.20;99.90;;;;;;5047705;28;20446;-84
2022/01/30 06:20:01;;;;;;;12.23;4.07;;;6.30;99.90;;;;;;5036846;28;20790;-83
2022/01/30 06:22:29;;;;;;;15.10;3.40;;;6.20;99.90;;;;;;5019402;28;20867;-83
2022/01/30 06:24:56;;;;;;;9.57;2.90;;;6.20;99.90;;;;;;5010440;28;20448;-83
2022/01/30 06:27:23;;;;;;;18.87;5.60;;;6.20;99.90;;;;;;5015883;28;20464;-83
2022/01/30 06:29:49;;;;;;;13.53;3.60;;;6.10;99.90;;;;;;5022739;28;20499;-84
2022/01/30 06:32:16;;;;;;;19.30;4.07;;;6.10;99.90;;;;;;5023029;28;20481;-84
2022/01/30 06:34:44;;;;;;;23.77;9.33;;;6.20;99.90;;;;;;5024631;28;20519;-84
2022/01/30 06:37:10;;;;;;;23.13;4.23;;;6.20;99.90;;;;;;5024583;28;20550;-84
2022/01/30 06:39:39;;;;;;;13.50;3.20;;;6.10;99.90;;;;;;5026681;28;20478;-84
2022/01/30 06:42:07;;;;;;;14.10;3.60;;;6.10;99.90;;;;;;5026943;28;20456;-84
2022/01/30 06:44:35;;;;;;;24.67;5.50;;;5.90;99.90;;;;;;5048086;23;20495;-83
2022/01/30 06:47:01;;;;;;;15.93;4.53;;;5.70;99.90;;;;;;5063000;28;20461;-83
2022/01/30 06:49:28;;;;;;;20.03;4.67;;;5.50;99.90;;;;;;5056779;28;20485;-82
2022/01/30 06:51:55;;;;;;;24.30;6.00;;;5.40;99.90;;;;;;5063719;28;20538;-80
2022/01/30 06:54:22;;;;;;;23.70;4.80;;;5.30;99.90;;;;;;5073323;28;21021;-82
2022/01/30 06:56:50;;;;;;;12.93;4.20;;;5.30;99.90;;;;;;5058967;28;20562;-80
2022/01/30 06:59:17;;;;;;;16.27;5.20;;;5.30;99.90;;;;;;5059454;28;20460;-81
2022/01/30 07:01:44;;;;;;;13.70;3.53;;;5.20;99.90;;;;;;5057803;28;20477;-82
2022/01/30 07:04:10;;;;;;;14.67;4.13;;;5.20;99.90;;;;;;5060990;28;20850;-81
2022/01/30 07:06:37;;;;;;;12.60;2.90;;;5.20;99.90;;;;;;5057427;28;20492;-82
2022/01/30 07:09:04;;;;;;;12.80;3.57;;;5.30;99.90;;;;;;5052070;28;20492;-81
2022/01/30 07:11:31;;;;;;;12.30;3.30;;;5.40;99.90;;;;;;5059999;28;20471;-82
2022/01/30 07:13:59;;;;;;;22.40;3.33;;;5.30;99.90;;;;;;5061714;28;20449;-81
2022/01/30 07:16:26;;;;;;;17.77;3.20;;;5.30;99.90;;;;;;5061976;28;20457;-82
2022/01/30 07:18:52;;;;;;;26.33;14.50;;;5.30;99.90;;;;;;5060002;28;20459;-81
2022/01/30 07:21:19;;;;;;;16.93;5.40;;;5.20;99.90;;;;;;5054012;28;20478;-82
2022/01/30 07:23:46;;;;;;;14.80;4.67;;;5.30;99.90;;;;;;5061487;28;20459;-81
2022/01/30 07:26:13;;;;;;;15.30;5.50;;;5.30;99.90;;;;;;5063312;28;20453;-81
2022/01/30 07:28:40;;;;;;;12.77;3.90;;;5.30;99.90;;;;;;5060459;28;20453;-83
2022/01/30 07:31:08;;;;;;;16.93;4.40;;;5.40;99.90;;;;;;5058345;28;20568;-79
2022/01/30 07:33:35;;;;;;;12.57;3.37;;;5.50;99.90;;;;;;5059239;28;20466;-81
2022/01/30 07:36:02;;;;;;;13.20;3.40;;;5.50;99.90;;;;;;5060014;28;20533;-82
2022/01/30 07:38:29;;;;;;;12.30;3.10;;;5.50;99.90;;;;;;5055939;28;20458;-80
2022/01/30 07:40:56;;;;;;;23.30;5.00;;;5.50;99.90;;;;;;5053563;28;20453;-81
2022/01/30 07:43:23;;;;;;;25.47;4.00;;;5.50;99.90;;;;;;5057162;28;20453;-80
2022/01/30 07:45:50;;;;;;;21.53;4.60;;;5.50;99.90;;;;;;5054369;28;20461;-83
2022/01/30 07:48:18;;;;;;;17.87;3.03;;;5.50;99.90;;;;;;5054640;28;20476;-81
2022/01/30 07:50:45;;;;;;;13.27;3.00;;;5.60;99.90;;;;;;5047118;28;20482;-81
2022/01/30 07:53:12;;;;;;;11.73;3.70;;;5.70;99.90;;;;;;5048729;28;20850;-81
2022/01/30 07:55:38;;;;;;;16.33;4.27;;;5.70;99.90;;;;;;5057539;28;20453;-82
2022/01/30 07:58:10;;;;;;;10.33;3.60;;;5.70;99.90;;;;;;5055203;28;20454;-81
2022/01/30 08:00:37;;;;;;;11.37;3.83;;;5.70;99.90;;;;;;5048612;28;20461;-80
2022/01/30 08:03:04;;;;;;;12.83;4.07;;;5.70;99.90;;;;;;5052540;28;20485;-81
2022/01/30 08:05:32;;;;;;;10.43;2.90;;;5.60;99.90;;;;;;5059612;28;20983;-81
2022/01/30 08:07:59;;;;;;;17.03;3.53;;;5.50;99.90;;;;;;5048917;28;20870;-82
2022/01/30 08:10:26;;;;;;;14.23;3.33;;;5.50;99.90;;;;;;5047098;28;20488;-83
2022/01/30 08:12:52;;;;;;;13.97;3.50;;;5.50;99.90;;;;;;5046259;28;20501;-83
2022/01/30 08:15:19;;;;;;;22.93;4.63;;;5.60;99.90;;;;;;5043238;28;20443;-83
2022/01/30 08:17:47;;;;;;;13.97;3.90;;;5.80;99.90;;;;;;5045685;28;20479;-83
2022/01/30 08:20:14;;;;;;;19.83;4.40;;;5.90;99.90;;;;;;5049584;28;20500;-83
2022/01/30 08:22:47;;;;;;;14.07;4.10;;;6.00;99.90;;;;;;5055094;28;20465;-83
2022/01/30 08:25:14;;;;;;;14.00;4.30;;;6.00;99.90;;;;;;5047647;28;21027;-81
2022/01/30 08:27:41;;;;;;;17.17;4.67;;;5.90;99.90;;;;;;5041591;28;20533;-81
2022/01/30 08:30:08;;;;;;;15.10;3.67;;;6.00;99.90;;;;;;5045874;28;20935;-84
2022/01/30 08:32:39;;;;;;;18.90;4.87;;;6.00;99.90;;;;;;5041855;28;21006;-85
2022/01/30 08:35:07;;;;;;;13.70;3.40;;;6.00;99.90;;;;;;5049390;28;20826;-83
2022/01/30 08:37:35;;;;;;;10.50;2.83;;;6.00;99.90;;;;;;5056158;28;20455;-85
2022/01/30 08:40:05;;;;;;;16.90;3.83;;;6.00;99.90;;;;;;5060177;28;20460;-83
2022/01/30 08:42:31;;;;;;;13.23;4.87;;;6.10;99.90;;;;;;5060564;28;20485;-84
2022/01/30 08:44:58;;;;;;;14.53;2.97;;;6.40;99.90;;;;;;5058631;28;20465;-83
2022/01/30 08:47:26;;;;;;;14.37;3.33;;;6.60;99.90;;;;;;5052227;28;20556;-85
2022/01/30 08:49:52;;;;;;;16.43;3.93;;;6.60;99.90;;;;;;5058149;28;20521;-83
2022/01/30 08:52:19;;;;;;;18.17;4.10;;;6.70;99.90;;;;;;5057089;28;20481;-85
2022/01/30 08:54:47;;;;;;;17.43;4.00;;;6.80;99.90;;;;;;5058020;28;20449;-85
2022/01/30 08:57:15;;;;;;;19.63;4.50;;;7.00;99.90;;;;;;5059958;28;20482;-86
2022/01/30 08:59:42;;;;;;;13.87;4.87;;;7.20;99.90;;;;;;5060181;28;20951;-85
2022/01/30 09:02:09;;;;;;;16.80;3.90;;;7.30;99.90;;;;;;5062934;28;20510;-82
2022/01/30 09:04:36;;;;;;;19.93;4.40;;;7.40;99.90;;;;;;5077212;28;20506;-83
2022/01/30 09:07:03;;;;;;;15.97;3.87;;;7.30;99.90;;;;;;5058228;28;20463;-84
2022/01/30 09:09:31;;;;;;;15.97;3.80;;;7.30;99.90;;;;;;5056629;28;20490;-86
2022/01/30 09:11:58;;;;;;;23.33;4.70;;;7.20;99.90;;;;;;5056565;28;20483;-85
2022/01/30 09:14:26;;;;;;;18.13;3.73;;;7.30;99.90;;;;;;5056653;28;20463;-84
2022/01/30 09:16:53;;;;;;;16.33;5.03;;;7.40;99.90;;;;;;5057114;28;20551;-84
2022/01/30 09:19:20;;;;;;;20.03;4.90;;;7.50;99.90;;;;;;5056949;28;20920;-85
2022/01/30 09:21:47;;;;;;;19.47;5.80;;;7.50;99.90;;;;;;5057296;28;20478;-85
2022/01/30 09:24:14;;;;;;;14.73;3.30;;;7.40;99.90;;;;;;5060127;28;20458;-85
2022/01/30 09:26:41;;;;;;;15.37;4.20;;;7.40;99.90;;;;;;5060627;28;20465;-87
2022/01/30 09:29:08;;;;;;;16.13;4.30;;;7.30;99.90;;;;;;5060774;28;20463;-84
2022/01/30 09:31:36;;;;;;;16.13;4.33;;;7.30;99.90;;;;;;5060781;28;20479;-85
2022/01/30 09:34:03;;;;;;;21.03;6.70;;;7.20;99.90;;;;;;5060642;28;20451;-84
2022/01/30 09:36:30;;;;;;;15.93;2.70;;;7.30;99.90;;;;;;5060872;28;20988;-84
2022/01/30 09:38:56;;;;;;;11.10;2.93;;;7.60;99.90;;;;;;5060951;28;20456;-84
2022/01/30 09:41:26;;;;;;;19.20;4.47;;;7.70;99.90;;;;;;5053885;28;20481;-85
2022/01/30 09:43:53;;;;;;;18.33;5.20;;;7.70;99.90;;;;;;5056103;28;20458;-83
2022/01/30 09:46:20;;;;;;;18.80;4.57;;;7.60;99.90;;;;;;5068056;28;20466;-84
2022/01/30 09:48:52;;;;;;;14.93;3.73;;;7.80;99.90;;;;;;5062075;28;20460;-84
2022/01/30 09:51:19;;;;;;;11.70;4.27;;;8.30;99.90;;;;;;5070732;28;20522;-83
2022/01/30 09:53:45;;;;;;;18.00;4.40;;;8.60;99.90;;;;;;5059492;28;20846;-83
2022/01/30 09:56:12;;;;;;;13.20;4.33;;;8.80;99.90;;;;;;5059314;28;20456;-83
2022/01/30 09:58:39;;;;;;;18.10;4.00;;;8.60;99.90;;;;;;5058283;28;21093;-82
2022/01/30 10:01:06;;;;;;;13.47;3.50;;;8.30;99.90;;;;;;5058829;28;20824;-83
2022/01/30 10:03:34;;;;;;;19.87;4.00;;;8.20;99.90;;;;;;5058458;28;20452;-83
2022/01/30 10:06:08;;;;;;;17.33;3.60;;;8.10;99.90;;;;;;5059073;28;20474;-85
2022/01/30 10:08:41;;;;;;;17.20;4.40;;;8.10;99.90;;;;;;5055417;28;20452;-84
2022/01/30 10:11:27;;;;;;;20.70;5.00;;;8.20;99.90;;;;;;5058481;28;20842;-84
2022/01/30 10:14:06;;;;;;;20.20;4.00;;;8.50;99.90;;;;;;5060479;28;20443;-83
2022/01/30 10:16:37;;;;;;;20.73;5.40;;;9.00;99.90;;;;;;5039852;28;20447;-85
2022/01/30 10:19:12;;;;;;;20.87;4.63;;;8.90;99.90;;;;;;5039539;28;20449;-84
2022/01/30 10:21:41;;;;;;;16.37;4.77;;;9.00;99.90;;;;;;5056574;28;20526;-84
2022/01/30 10:24:22;;;;;;;17.53;4.37;;;9.20;99.90;;;;;;5058762;28;20459;-84
2022/01/30 10:26:49;;;;;;;21.80;4.20;;;9.10;99.90;;;;;;5056678;28;20482;-84
2022/01/30 10:29:20;;;;;;;15.60;4.20;;;9.00;99.90;;;;;;5049172;28;20459;-84
2022/01/30 10:32:05;;;;;;;25.43;4.60;;;8.90;99.90;;;;;;5049127;28;20499;-83
2022/01/30 10:34:32;;;;;;;21.57;5.10;;;8.60;99.90;;;;;;5047852;28;20959;-84
2022/01/30 10:37:19;;;;;;;28.20;5.20;;;8.50;99.90;;;;;;5052079;28;20451;-83
2022/01/30 10:40:06;;;;;;;19.50;4.93;;;8.40;99.90;;;;;;5051283;28;20495;-84
2022/01/30 10:42:39;;;;;;;21.07;6.23;;;8.30;99.90;;;;;;5055916;28;20939;-83
2022/01/30 10:45:15;;;;;;;23.47;4.77;;;8.60;99.90;;;;;;5054200;28;20968;-83
2022/01/30 10:47:44;;;;;;;31.83;6.90;;;8.90;99.90;;;;;;5057018;28;20886;-84
2022/01/30 10:50:17;;;;;;;22.63;6.67;;;9.40;99.90;;;;;;5057573;28;21098;-86
2022/01/30 10:52:54;;;;;;;22.50;5.77;;;9.50;99.90;;;;;;5065652;23;20499;-81
2022/01/30 10:55:35;;;;;;;20.73;5.37;;;10.10;99.90;;;;;;5036636;28;20464;-82
2022/01/30 10:58:03;;;;;;;18.03;5.10;;;10.40;99.90;;;;;;5037124;28;20453;-81
2022/01/30 11:00:42;;;;;;;18.90;5.30;;;11.40;99.90;;;;;;5037181;28;20483;-81
2022/01/30 11:03:10;;;;;;;21.60;5.00;;;12.60;99.90;;;;;;5044007;28;20468;-80
2022/01/30 11:05:54;;;;;;;17.87;5.30;;;12.90;99.90;;;;;;5052167;28;20459;-82
2022/01/30 11:08:24;;;;;;;12.00;5.33;;;13.10;99.90;;;;;;5052724;28;20457;-82
2022/01/30 11:11:00;;;;;;;17.13;4.17;;;13.10;99.90;;;;;;5052030;28;20854;-82
2022/01/30 11:13:33;;;;;;;17.83;5.37;;;12.70;99.90;;;;;;5045372;28;20474;-82
2022/01/30 11:18:43;;;;;;;21.23;5.40;;;11.40;99.90;;;;;;5048270;28;20530;-81
2022/01/30 11:21:10;;;;;;;18.83;6.23;;;11.10;99.90;;;;;;5056405;28;20460;-82
2022/01/30 11:23:41;;;;;;;12.77;4.00;;;11.70;99.90;;;;;;5054143;28;20447;-82
2022/01/30 11:26:10;;;;;;;17.03;5.10;;;12.00;99.90;;;;;;5051393;28;20485;-81
2022/01/30 11:28:37;;;;;;;17.43;5.80;;;11.90;99.90;;;;;;5051470;28;20466;-81
2022/01/30 11:31:04;;;;;;;21.23;4.80;;;11.30;99.90;;;;;;5060867;28;20492;-80
2022/01/30 11:33:32;;;;;;;32.47;5.70;;;11.60;99.90;;;;;;5055528;28;20483;-79
2022/01/30 11:36:00;;;;;;;13.17;4.67;;;11.90;99.90;;;;;;5055009;28;20458;-81
2022/01/30 11:38:27;;;;;;;18.63;4.60;;;12.50;99.90;;;;;;5053771;28;20843;-84
2022/01/30 11:41:13;;;;;;;27.47;5.20;;;14.00;99.80;;;;;;5048800;28;20456;-84
2022/01/30 11:43:40;;;;;;;16.07;4.53;;;14.20;93.40;;;;;;5051830;28;20542;-84
2022/01/30 11:46:15;;;;;;;18.40;5.00;;;14.40;91.20;;;;;;5042848;28;20457;-84
2022/01/30 11:49:11;;;;;;;14.57;5.13;;;14.90;91.70;;;;;;5048708;28;20492;-84
2022/01/30 11:51:49;;;;;;;22.07;5.67;;;15.00;85.90;;;;;;5042579;28;20498;-84
2022/01/30 11:54:35;;;;;;;19.40;4.60;;;15.40;86.20;;;;;;5055068;28;20458;-84
2022/01/30 11:57:04;;;;;;;13.07;4.23;;;14.60;87.50;;;;;;5044689;28;20508;-84
2022/01/30 11:59:38;;;;;;;20.60;5.60;;;14.30;86.20;;;;;;5047812;28;20537;-84
2022/01/30 12:02:22;;;;;;;18.43;4.67;;;14.20;86.60;;;;;;5039816;28;20495;-84
2022/01/30 12:04:57;;;;;;;25.87;6.27;;;13.60;86.00;;;;;;5053970;28;21060;-84
2022/01/30 12:07:34;;;;;;;16.97;4.90;;;12.90;87.10;;;;;;5038516;28;20459;-82
2022/01/30 12:10:32;;;;;;;12.90;6.07;;;13.50;91.40;;;;;;5049843;28;20463;-84
2022/01/30 12:13:02;;;;;;;11.97;3.50;;;13.70;88.20;;;;;;5040414;28;20490;-82
2022/01/30 12:15:37;;;;;;;19.07;5.13;;;13.50;86.80;;;;;;5037160;28;20472;-84
2022/01/30 12:18:05;;;;;;;16.27;4.90;;;13.90;90.10;;;;;;5036698;28;20546;-83
2022/01/30 12:20:41;;;;;;;16.63;5.23;;;14.30;85.50;;;;;;5037818;28;20501;-84
2022/01/30 12:23:25;;;;;;;9.20;3.67;;;13.80;86.10;;;;;;5043067;28;20486;-84
2022/01/30 12:25:55;;;;;;;26.20;5.00;;;13.60;86.60;;;;;;5052308;28;20453;-85
2022/01/30 12:28:41;;;;;;;18.13;4.03;;;13.00;89.00;;;;;;5053221;28;20488;-83
2022/01/30 12:31:26;;;;;;;16.93;4.43;;;12.60;91.00;;;;;;5052578;28;20474;-84
2022/01/30 12:34:01;;;;;;;14.20;4.53;;;12.60;92.00;;;;;;5035556;28;20478;-84
2022/01/30 12:36:32;;;;;;;20.40;4.27;;;12.80;89.80;;;;;;5039064;28;20461;-84
2022/01/30 12:39:01;;;;;;;16.77;4.80;;;12.30;90.70;;;;;;5048143;28;20813;-81
2022/01/30 12:41:30;;;;;;;18.90;5.30;;;12.40;90.80;;;;;;5049968;28;20899;-84
2022/01/30 12:44:01;;;;;;;16.67;4.50;;;12.30;88.90;;;;;;5038131;28;20451;-84
2022/01/30 12:46:30;;;;;;;23.57;5.20;;;12.10;88.90;;;;;;5051364;28;20447;-83
2022/01/30 12:49:16;;;;;;;17.20;5.07;;;11.50;90.70;;;;;;5041376;28;20459;-84
2022/01/30 12:51:48;;;;;;;20.47;5.10;;;11.20;94.00;;;;;;5045452;28;20503;-83
2022/01/30 12:54:16;;;;;;;25.57;5.00;;;10.90;97.00;;;;;;5039156;28;20458;-83
2022/01/30 12:56:44;;;;;;;19.97;4.90;;;10.50;99.60;;;;;;5046820;28;20459;-83
2022/01/30 12:59:14;;;;;;;19.33;5.20;;;10.20;99.90;;;;;;5043623;28;20457;-83
2022/01/30 13:01:45;;;;;;;19.07;4.67;;;10.10;99.90;;;;;;5036782;28;20484;-83
2022/01/30 13:04:14;;;;;;;21.03;4.60;;;10.20;99.90;;;;;;5047086;28;20974;-84
2022/01/30 13:06:42;;;;;;;28.13;6.53;;;10.10;99.90;;;;;;5052385;28;20466;-83
2022/01/30 13:09:12;;;;;;;27.03;5.77;;;9.90;99.90;;;;;;5041592;28;20924;-82
2022/01/30 13:11:39;;;;;;;26.03;5.83;;;9.90;99.90;;;;;;5050466;28;20504;-81
2022/01/30 13:14:12;;;;;;;19.70;4.90;;;9.80;99.90;;;;;;5042783;28;20457;-82
2022/01/30 13:16:43;;;;;;;23.97;4.80;;;9.90;99.90;;;;;;5043479;28;20471;-82
2022/01/30 13:19:11;;;;;;;19.77;4.53;;;9.70;99.90;;;;;;5049432;28;20827;-82
2022/01/30 13:21:40;;;;;;;28.80;6.10;;;9.40;99.90;;;;;;5048235;28;20532;-83
2022/01/30 13:24:08;;;;;;;25.20;6.00;;;9.20;99.90;;;;;;5040900;28;20482;-84
2022/01/30 13:26:46;;;;;;;21.73;5.80;;;9.30;99.90;;;;;;5036150;28;20528;-84
2022/01/30 13:29:17;;;;;;;21.33;5.53;;;9.50;99.90;;;;;;5044680;28;20555;-83
2022/01/30 13:31:48;;;;;;;25.97;5.90;;;9.30;99.90;;;;;;5038866;28;20491;-83
2022/01/30 13:34:23;;;;;;;24.37;5.23;;;9.30;99.90;;;;;;5043852;28;20437;-84
2022/01/30 13:36:55;;;;;;;24.23;4.47;;;9.20;99.90;;;;;;5042093;28;20474;-83